Fort Smith Regional Airport
KFSM : now visible

Airfield :











YOU CAN JOIN US ON...

 
LOGIN :

Register | Disclaimer

   EN    FR    IT 

 









Legend :    VFR   Marginal VFR   IFR   Intensive IFR   Very Intensive IFR
Visi :
Ceiling :
>= 8 km
>= 3000ft
5 to 8 km
1000 to 3000 ft
1500m to 5 km
500 to 1000 ft
800 to 1500m
200 to 500 ft
< 800m
< 200 ft
Symbols :   Thunderstorms  Fog  Heavy snow  Heavy precipitations  Wind > 20 kt







- Airport Elevation : 469 ft
- IATA code : FSM


KFSM - Fort Smith Regional

CURRENT METAR :
  • 260753Z AUTO 01004KT 10SM FEW095 23/21 A3006 RMK AO2 SLP172 T02330206

EXPIRED METARs :
  • 260653Z AUTO 07003KT 10SM CLR 23/20 A3005 RMK AO2 SLP171 T02330200
  • 260553Z AUTO 00000KT 10SM CLR 24/19 A3004 RMK AO2 SLP166 T02440194 10300 20239 403170217 50006
  • 260453Z AUTO 00000KT 10SM CLR 25/20 A3005 RMK AO2 SLP169 T02500200

TAF KFSM
Valid from the 26 at 06:00 until the 27 at 06:00 UTC


260557Z 2606/2706 07005KT P6SM SCT040 BKN250
TEMPO 2608/2611 3SM TSRA BR BKN030CB
FM261100 07005KT P6SM SCT030 BKN050
FM261500 19010KT P6SM SCT050
FM270200 13004KT P6SM BKN250
KZME FIR / North America



MET'MAP, your aeronautical weather chart ! - Copyright ORBIFLY December 2007 - Disclaimer

ORBIFLY MET'MAP TEAM :

Programming & Development : Alexandra Zaïnal
Concept & Development : Baudouin d'Aumeries
Co-Development & Prog : Marc-Olivier Méhu
Technical & hardware support : Manuel Goepfert

Contact : metmap@orbifly.com




SOURCES & CREDITS :

   NOAA       Earth
Advisory